LDDU/DBV METAR and TAF weather

Enter ICAO airport designator
Station Type Date Time Source
LDDU METAR 2019/02/22 22:30 UTC NOAA

LDDU 222230Z 04023G45KT 330V100 CAVOK 08/M10 Q1016


Station Type Date Time Source
LDDU Decoded METAR 2019/02/22 22:30 UTC NOAA

Dubrovnik / Cilipi, Croatia (LDDU) 42-34N 018-16E 165M
Feb 22, 2019 - 05:30 PM EST / 2019.02.22 2230 UTC
Wind: from the NE (040 degrees) at 26 MPH (23 KT) gusting to 52 MPH (45 KT) (direction variable):0
Visibility: greater than 7 mile(s):0
Temperature: 46 F (8 C)
Dew Point: 14 F (-10 C)
Relative Humidity: 26%
Pressure (altimeter): 30.00 in. Hg (1016 hPa)
ob: LDDU 222230Z 04023G45KT 330V100 CAVOK 08/M10 Q1016
cycle: 22

Station Type Date Time Source
LDDU TAF 2019/02/22 18:27 UTC NOAA

TAF TAF LDDU 221725Z 2218/2318 33015KT CAVOK TX11/2218Z TN00/2305Z
TEMPO 2218/2222 02020G33KT
BECMG 2221/2223 02035G55KT PROB40
TEMPO 2300/2309 02045G65KT
TEMPO 2312/2318 03025G35KT


Example: see airport list